Time,TemperatureF,DewpointF,PressureIn,WindDirection,WindDirectionDegrees,WindSpeedMPH,WindSpeedGustMPH,Humidity,HourlyPrecipIn,Conditions,Clouds,dailyrainin,SoftwareType,DateUTC
2013-10-15 00:12:00,38.0,34.0,30.18,NNE,22,0.0,0.0,85,0.00,,,0.39,,2013-10-15 06:12:00,
2013-10-15 00:22:00,38.0,34.0,30.19,NNE,22,0.0,0.0,85,0.00,,,0.39,,2013-10-15 06:22:00,
2013-10-15 00:43:00,38.0,33.0,30.18,NNE,22,3.0,5.0,83,0.00,,,0.38,,2013-10-15 06:43:00,
2013-10-15 00:52:00,38.0,32.0,30.18,NW,320,4.0,8.0,79,0.00,,,0.38,,2013-10-15 06:52:00,
2013-10-15 01:12:00,38.0,32.0,30.18,NW,320,2.0,7.0,80,0.00,,,0.38,,2013-10-15 07:12:00,
2013-10-15 01:22:00,37.0,32.0,30.18,NW,320,4.0,6.0,83,0.00,,,0.38,,2013-10-15 07:22:00,
2013-10-15 01:42:00,37.0,33.0,30.18,NW,320,4.0,6.0,84,0.00,,,0.38,,2013-10-15 07:42:00,
2013-10-15 01:52:00,37.0,33.0,30.18,NW,320,3.0,6.0,84,0.00,,,0.38,,2013-10-15 07:52:00,
2013-10-15 02:12:00,37.0,32.0,30.17,NW,320,3.0,5.0,83,0.00,,,0.38,,2013-10-15 08:12:00,
2013-10-15 02:22:00,37.0,32.0,30.17,NW,320,3.0,6.0,82,0.00,,,0.38,,2013-10-15 08:22:00,
2013-10-15 02:42:00,36.0,31.0,30.17,NW,320,3.0,4.0,83,0.00,,,0.37,,2013-10-15 08:42:00,
2013-10-15 02:52:00,35.0,31.0,30.17,NW,320,3.0,5.0,84,0.00,,,0.37,,2013-10-15 08:52:00,
2013-10-15 03:12:00,34.0,30.0,30.18,NW,320,2.0,5.0,85,0.00,,,0.37,,2013-10-15 09:12:00,
2013-10-15 03:22:00,35.0,30.0,30.17,NW,320,1.0,5.0,81,0.00,,,0.37,,2013-10-15 09:22:00,
2013-10-15 03:43:00,35.0,29.0,30.17,NW,320,0.0,0.0,79,0.00,,,0.36,,2013-10-15 09:43:00,
2013-10-15 03:53:00,35.0,29.0,30.17,NNE,15,3.0,12.0,77,0.00,,,0.36,,2013-10-15 09:53:00,
2013-10-15 04:13:00,35.0,29.0,30.17,North,11,3.0,5.0,77,0.00,,,0.36,,2013-10-15 10:13:00,
2013-10-15 04:23:00,35.0,28.0,30.17,North,355,4.0,8.0,76,0.00,,,0.36,,2013-10-15 10:23:00,
2013-10-15 04:42:00,35.0,28.0,30.16,NNW,334,4.0,11.0,75,0.00,,,0.34,,2013-10-15 10:42:00,
2013-10-15 04:53:00,34.0,27.0,30.17,NW,321,1.0,8.0,75,0.00,,,0.34,,2013-10-15 10:53:00,
2013-10-15 05:11:00,34.0,27.0,30.17,NW,325,0.0,5.0,76,0.00,,,0.34,,2013-10-15 11:11:00,
2013-10-15 05:22:00,33.0,27.0,30.17,NNW,327,3.0,7.0,77,0.00,,,0.34,,2013-10-15 11:22:00,
2013-10-15 05:42:00,33.0,27.0,30.17,NW,319,0.0,5.0,77,0.00,,,0.31,,2013-10-15 11:42:00,
2013-10-15 05:52:00,33.0,27.0,30.17,NW,319,0.0,5.0,77,0.00,,,0.31,,2013-10-15 11:52:00,
2013-10-15 06:12:00,33.0,27.0,30.17,NW,319,0.0,0.0,77,0.00,,,0.31,,2013-10-15 12:12:00,
2013-10-15 06:22:00,32.0,26.0,30.18,NW,319,5.0,8.0,78,0.00,,,0.31,,2013-10-15 12:22:00,
2013-10-15 06:42:00,32.0,26.0,30.18,NW,319,2.0,6.0,78,0.00,,,0.28,,2013-10-15 12:42:00,
2013-10-15 06:52:00,32.0,26.0,30.18,NW,319,0.0,1.0,77,0.00,,,0.28,,2013-10-15 12:52:00,
2013-10-15 07:11:00,31.0,25.0,30.19,NW,319,0.0,0.0,79,0.00,,,0.28,,2013-10-15 13:11:00,
2013-10-15 07:21:00,31.0,26.0,30.19,NW,319,1.0,4.0,80,0.00,,,0.28,,2013-10-15 13:21:00,
2013-10-15 07:42:00,31.0,26.0,30.19,NW,319,3.0,5.0,80,0.00,,,0.24,,2013-10-15 13:42:00,
2013-10-15 07:52:00,31.0,25.0,30.19,NW,319,4.0,6.0,79,0.00,,,0.24,,2013-10-15 13:52:00,
2013-10-15 08:12:00,31.0,25.0,30.19,NW,319,0.0,0.0,79,0.00,,,0.24,,2013-10-15 14:12:00,
2013-10-15 08:22:00,31.0,25.0,30.19,NW,319,0.0,0.0,79,0.00,,,0.24,,2013-10-15 14:22:00,
2013-10-15 08:42:00,31.0,26.0,30.20,NW,319,0.0,0.0,80,0.00,,,0.19,,2013-10-15 14:42:00,
2013-10-15 08:52:00,32.0,27.0,30.20,NW,319,0.0,0.0,80,0.00,,,0.19,,2013-10-15 14:52:00,
2013-10-15 09:11:00,33.0,28.0,30.20,NW,319,0.0,0.0,80,0.00,,,0.19,,2013-10-15 15:11:00,
2013-10-15 09:22:00,34.0,28.0,30.19,NW,319,0.0,0.0,77,0.00,,,0.19,,2013-10-15 15:22:00,
2013-10-15 09:44:00,35.0,29.0,30.20,NW,319,0.0,0.0,78,0.00,,,0.15,,2013-10-15 15:44:00,
2013-10-15 09:53:00,36.0,30.0,30.20,NW,319,0.0,0.0,78,0.00,,,0.15,,2013-10-15 15:53:00,
2013-10-15 10:13:00,37.0,30.0,30.19,NW,319,0.0,0.0,76,0.00,,,0.15,,2013-10-15 16:13:00,
2013-10-15 10:23:00,39.0,32.0,30.19,NW,319,0.0,0.0,77,0.00,,,0.15,,2013-10-15 16:23:00,
2013-10-15 10:42:00,40.0,33.0,30.19,NW,319,0.0,0.0,75,0.00,,,0.12,,2013-10-15 16:42:00,
2013-10-15 10:53:00,41.0,33.0,30.19,NW,319,0.0,5.0,74,0.00,,,0.12,,2013-10-15 16:53:00,
2013-10-15 11:12:00,42.0,34.0,30.19,NW,319,0.0,5.0,74,0.00,,,0.12,,2013-10-15 17:12:00,
2013-10-15 11:22:00,43.0,36.0,30.18,NW,319,0.0,6.0,75,0.00,,,0.12,,2013-10-15 17:22:00,
2013-10-15 11:42:00,44.0,36.0,30.17,NW,317,1.0,6.0,72,0.00,,,0.09,,2013-10-15 17:42:00,
2013-10-15 11:53:00,46.0,37.0,30.17,NW,313,1.0,5.0,71,0.00,,,0.09,,2013-10-15 17:53:00,
2013-10-15 12:12:00,47.0,36.0,30.16,NW,309,1.0,6.0,65,0.00,,,0.09,,2013-10-15 18:12:00,
2013-10-15 12:22:00,48.0,36.0,30.15,WSW,254,0.0,6.0,63,0.00,,,0.09,,2013-10-15 18:22:00,
2013-10-15 12:42:00,48.0,30.0,30.14,WNW,288,6.0,10.0,49,0.00,,,0.06,,2013-10-15 18:42:00,
2013-10-15 12:52:00,48.0,29.0,30.14,NNW,341,1.0,10.0,48,0.00,,,0.06,,2013-10-15 18:52:00,
2013-10-15 13:12:00,49.0,30.0,30.13,NW,307,4.0,11.0,48,0.00,,,0.06,,2013-10-15 19:12:00,
2013-10-15 13:22:00,49.0,31.0,30.11,NNW,348,4.0,13.0,49,0.00,,,0.06,,2013-10-15 19:22:00,
2013-10-15 13:42:00,49.0,28.0,30.11,NNW,331,1.0,12.0,44,0.00,,,0.03,,2013-10-15 19:42:00,
2013-10-15 13:52:00,50.0,29.0,30.10,NW,313,6.0,9.0,45,0.00,,,0.03,,2013-10-15 19:52:00,
2013-10-15 14:12:00,50.0,29.0,30.09,WNW,296,5.0,11.0,44,0.00,,,0.03,,2013-10-15 20:12:00,
2013-10-15 14:22:00,50.0,30.0,30.08,North,351,4.0,14.0,46,0.00,,,0.03,,2013-10-15 20:22:00,
2013-10-15 14:42:00,50.0,28.0,30.07,NW,319,8.0,13.0,42,0.00,,,0.02,,2013-10-15 20:42:00,
2013-10-15 14:52:00,51.0,30.0,30.07,WNW,292,6.0,11.0,44,0.00,,,0.02,,2013-10-15 20:52:00,
2013-10-15 15:13:00,51.0,29.0,30.06,West,273,6.0,12.0,42,0.00,,,0.02,,2013-10-15 21:13:00,
2013-10-15 15:22:00,51.0,28.0,30.05,WNW,289,7.0,13.0,41,0.00,,,0.02,,2013-10-15 21:22:00,
2013-10-15 15:44:00,52.0,29.0,30.05,NW,325,4.0,11.0,41,0.00,,,0.02,,2013-10-15 21:44:00,
2013-10-15 15:54:00,52.0,28.0,30.04,NW,325,1.0,10.0,40,0.00,,,0.02,,2013-10-15 21:54:00,
2013-10-15 16:13:00,52.0,29.0,30.03,West,264,3.0,11.0,41,0.00,,,0.02,,2013-10-15 22:13:00,
2013-10-15 16:23:00,53.0,29.0,30.03,WSW,252,6.0,12.0,39,0.00,,,0.02,,2013-10-15 22:23:00,
2013-10-15 16:43:00,53.0,29.0,30.02,WSW,245,5.0,12.0,39,0.00,,,0.01,,2013-10-15 22:43:00,
2013-10-15 16:53:00,53.0,30.0,30.02,WSW,248,9.0,13.0,41,0.00,,,0.01,,2013-10-15 22:53:00,
2013-10-15 17:12:00,53.0,30.0,30.01,West,263,7.0,9.0,41,0.00,,,0.01,,2013-10-15 23:12:00,
2013-10-15 17:22:00,53.0,29.0,30.01,WSW,254,7.0,10.0,40,0.00,,,0.01,,2013-10-15 23:22:00,
2013-10-15 17:43:00,53.0,30.0,30.00,West,277,5.0,8.0,41,0.00,,,0.00,,2013-10-15 23:43:00,
2013-10-15 17:52:00,52.0,30.0,30.00,West,265,3.0,8.0,42,0.00,,,0.00,,2013-10-15 23:52:00,
2013-10-15 18:12:00,52.0,31.0,29.99,West,264,0.0,4.0,44,0.00,,,0.00,,2013-10-16 00:12:00,
2013-10-15 18:22:00,51.0,31.0,29.99,West,264,0.0,0.0,47,0.00,,,0.00,,2013-10-16 00:22:00,
2013-10-15 18:42:00,48.0,31.0,29.98,West,264,0.0,0.0,52,0.00,,,0.00,,2013-10-16 00:42:00,
2013-10-15 18:52:00,45.0,31.0,29.98,West,264,2.0,4.0,57,0.00,,,0.00,,2013-10-16 00:52:00,
2013-10-15 19:11:00,43.0,31.0,29.98,West,264,0.0,3.0,62,0.00,,,0.00,,2013-10-16 01:11:00,
2013-10-15 19:22:00,42.0,31.0,29.98,West,264,0.0,0.0,66,0.00,,,0.00,,2013-10-16 01:22:00,
2013-10-15 19:42:00,41.0,31.0,29.98,West,264,2.0,4.0,67,0.00,,,0.00,,2013-10-16 01:42:00,
2013-10-15 19:52:00,41.0,31.0,29.98,West,264,0.0,3.0,67,0.00,,,0.00,,2013-10-16 01:52:00,
2013-10-15 20:12:00,40.0,31.0,29.97,West,264,2.0,4.0,69,0.00,,,0.00,,2013-10-16 02:12:00,
2013-10-15 20:22:00,40.0,31.0,29.97,West,264,0.0,3.0,70,0.00,,,0.00,,2013-10-16 02:22:00,
2013-10-15 20:42:00,39.0,31.0,29.97,West,264,0.0,0.0,72,0.00,,,0.00,,2013-10-16 02:42:00,
2013-10-15 20:52:00,38.0,29.0,29.97,West,264,0.0,0.0,70,0.00,,,0.00,,2013-10-16 02:52:00,
2013-10-15 21:11:00,38.0,30.0,29.97,West,264,0.0,0.0,73,0.00,,,0.00,,2013-10-16 03:11:00,
2013-10-15 21:22:00,38.0,30.0,29.97,West,264,0.0,0.0,73,0.00,,,0.00,,2013-10-16 03:22:00,
2013-10-15 21:45:00,37.0,29.0,29.97,West,264,0.0,0.0,74,0.00,,,0.00,,2013-10-16 03:45:00,
2013-10-15 21:55:00,37.0,30.0,29.97,West,264,0.0,0.0,76,0.00,,,0.00,,2013-10-16 03:55:00,
2013-10-15 22:14:00,36.0,29.0,29.96,West,264,0.0,0.0,76,0.00,,,0.00,,2013-10-16 04:14:00,
2013-10-15 22:24:00,36.0,30.0,29.96,West,264,0.0,0.0,79,0.00,,,0.00,,2013-10-16 04:24:00,
2013-10-15 22:43:00,36.0,30.0,29.96,West,264,0.0,0.0,78,0.00,,,0.00,,2013-10-16 04:43:00,
2013-10-15 22:54:00,36.0,30.0,29.96,West,264,0.0,0.0,78,0.00,,,0.00,,2013-10-16 04:54:00,
2013-10-15 23:13:00,36.0,30.0,29.96,West,264,0.0,0.0,78,0.00,,,0.00,,2013-10-16 05:13:00,
2013-10-15 23:22:00,36.0,30.0,29.95,West,264,0.0,0.0,79,0.00,,,0.00,,2013-10-16 05:22:00,
2013-10-15 23:43:00,36.0,31.0,29.95,West,264,0.0,0.0,81,0.00,,,0.00,,2013-10-16 05:43:00,
2013-10-15 23:53:00,35.0,30.0,29.95,West,264,0.0,0.0,81,0.00,,,0.00,,2013-10-16 05:53:00,